sensor_id;sensor_type;location;lat;lon;timestamp;pressure;altitude;pressure_sealevel;temperature;humidity
56270;BME280;42176;43.240;27.880;2023-01-01T00:00:45;101594.41;;;7.44;92.33
56270;BME280;42176;43.240;27.880;2023-01-01T00:03:11;101593.97;;;5.72;100.00
56270;BME280;42176;43.240;27.880;2023-01-01T00:05:39;101596.94;;;5.48;100.00
56270;BME280;42176;43.240;27.880;2023-01-01T00:08:05;101597.31;;;5.65;100.00
56270;BME280;42176;43.240;27.880;2023-01-01T00:10:31;101603.88;;;5.84;100.00
56270;BME280;42176;43.240;27.880;2023-01-01T00:12:58;101602.88;;;6.20;100.00
56270;BME280;42176;43.240;27.880;2023-01-01T00:15:25;101603.69;;;5.35;100.00
56270;BME280;42176;43.240;27.880;2023-01-01T00:17:51;101600.75;;;5.61;100.00
56270;BME280;42176;43.240;27.880;2023-01-01T00:20:16;101605.47;;;5.76;100.00
56270;BME280;42176;43.240;27.880;2023-01-01T00:22:42;101611.16;;;5.98;100.00
56270;BME280;42176;43.240;27.880;2023-01-01T00:25:09;101605.75;;;6.34;100.00
56270;BME280;42176;43.240;27.880;2023-01-01T00:27:35;101610.09;;;5.48;100.00
56270;BME280;42176;43.240;27.880;2023-01-01T00:30:01;101618.41;;;5.67;100.00
56270;BME280;42176;43.240;27.880;2023-01-01T00:32:26;101619.63;;;5.83;100.00
56270;BME280;42176;43.240;27.880;2023-01-01T00:34:52;101615.50;;;5.95;100.00
56270;BME280;42176;43.240;27.880;2023-01-01T00:37:17;101611.50;;;6.13;100.00
56270;BME280;42176;43.240;27.880;2023-01-01T00:39:43;101608.31;;;6.30;100.00
56270;BME280;42176;43.240;27.880;2023-01-01T00:42:09;101602.47;;;6.46;100.00
56270;BME280;42176;43.240;27.880;2023-01-01T00:44:34;101602.00;;;6.69;100.00
56270;BME280;42176;43.240;27.880;2023-01-01T00:47:00;101606.56;;;6.79;100.00
56270;BME280;42176;43.240;27.880;2023-01-01T00:49:25;101590.03;;;6.90;100.00
56270;BME280;42176;43.240;27.880;2023-01-01T00:51:52;101608.16;;;6.20;100.00
56270;BME280;42176;43.240;27.880;2023-01-01T00:54:17;101609.72;;;5.32;100.00
56270;BME280;42176;43.240;27.880;2023-01-01T00:56:43;101613.72;;;5.53;100.00
56270;BME280;42176;43.240;27.880;2023-01-01T00:59:08;101607.88;;;5.67;100.00
56270;BME280;42176;43.240;27.880;2023-01-01T01:01:34;101606.88;;;6.01;100.00
56270;BME280;42176;43.240;27.880;2023-01-01T01:04:01;101604.28;;;5.23;100.00
56270;BME280;42176;43.240;27.880;2023-01-01T01:06:27;101606.31;;;5.37;100.00
56270;BME280;42176;43.240;27.880;2023-01-01T01:08:53;101601.56;;;5.58;100.00
56270;BME280;42176;43.240;27.880;2023-01-01T01:11:21;101609.06;;;5.81;100.00
56270;BME280;42176;43.240;27.880;2023-01-01T01:13:49;101597.00;;;5.92;100.00
56270;BME280;42176;43.240;27.880;2023-01-01T01:16:22;101588.94;;;5.42;100.00
56270;BME280;42176;43.240;27.880;2023-01-01T01:18:52;101585.09;;;5.67;100.00
56270;BME280;42176;43.240;27.880;2023-01-01T01:21:20;101572.63;;;6.00;100.00
56270;BME280;42176;43.240;27.880;2023-01-01T01:23:45;101573.75;;;5.30;100.00
56270;BME280;42176;43.240;27.880;2023-01-01T01:26:23;101575.88;;;5.46;100.00
56270;BME280;42176;43.240;27.880;2023-01-01T01:28:50;101563.75;;;5.55;100.00
56270;BME280;42176;43.240;27.880;2023-01-01T01:31:17;101566.84;;;5.75;100.00
56270;BME280;42176;43.240;27.880;2023-01-01T01:33:44;101574.19;;;5.91;100.00
56270;BME280;42176;43.240;27.880;2023-01-01T01:36:10;101573.31;;;5.92;100.00
56270;BME280;42176;43.240;27.880;2023-01-01T01:38:35;101587.19;;;5.04;100.00
56270;BME280;42176;43.240;27.880;2023-01-01T01:41:02;101576.19;;;5.22;100.00
56270;BME280;42176;43.240;27.880;2023-01-01T01:45:58;101582.75;;;5.81;100.00
56270;BME280;42176;43.240;27.880;2023-01-01T01:48:25;101577.69;;;5.11;100.00
56270;BME280;42176;43.240;27.880;2023-01-01T01:50:52;101568.31;;;5.22;100.00
56270;BME280;42176;43.240;27.880;2023-01-01T01:53:26;101576.94;;;5.98;100.00
56270;BME280;42176;43.240;27.880;2023-01-01T01:55:56;101551.88;;;5.32;100.00
56270;BME280;42176;43.240;27.880;2023-01-01T01:58:24;101575.28;;;5.60;100.00
56270;BME280;42176;43.240;27.880;2023-01-01T02:00:50;101570.31;;;5.74;100.00
56270;BME280;42176;43.240;27.880;2023-01-01T02:03:26;101577.69;;;5.90;100.00
56270;BME280;42176;43.240;27.880;2023-01-01T02:05:55;101577.28;;;6.13;100.00
56270;BME280;42176;43.240;27.880;2023-01-01T02:08:22;101571.59;;;6.39;100.00
56270;BME280;42176;43.240;27.880;2023-01-01T02:10:47;101565.75;;;6.08;100.00
56270;BME280;42176;43.240;27.880;2023-01-01T02:13:13;101561.53;;;6.16;100.00
56270;BME280;42176;43.240;27.880;2023-01-01T02:15:47;101569.50;;;6.70;100.00
56270;BME280;42176;43.240;27.880;2023-01-01T02:18:20;101561.19;;;5.99;100.00
56270;BME280;42176;43.240;27.880;2023-01-01T02:20:54;101569.19;;;6.04;100.00
56270;BME280;42176;43.240;27.880;2023-01-01T02:23:27;101561.69;;;6.24;100.00
56270;BME280;42176;43.240;27.880;2023-01-01T02:26:17;101555.91;;;6.45;100.00
56270;BME280;42176;43.240;27.880;2023-01-01T02:31:25;101558.34;;;6.83;100.00
56270;BME280;42176;43.240;27.880;2023-01-01T02:33:55;101555.09;;;7.03;100.00
56270;BME280;42176;43.240;27.880;2023-01-01T02:36:24;101558.81;;;7.14;100.00
56270;BME280;42176;43.240;27.880;2023-01-01T02:38:53;101557.25;;;7.29;98.27
56270;BME280;42176;43.240;27.880;2023-01-01T02:41:23;101556.47;;;7.35;97.53
56270;BME280;42176;43.240;27.880;2023-01-01T02:43:50;101551.34;;;7.45;96.34
56270;BME280;42176;43.240;27.880;2023-01-01T02:46:16;101554.75;;;7.38;94.27
56270;BME280;42176;43.240;27.880;2023-01-01T02:48:47;101556.78;;;5.98;100.00
56270;BME280;42176;43.240;27.880;2023-01-01T02:51:21;101562.84;;;5.94;100.00
56270;BME280;42176;43.240;27.880;2023-01-01T02:56:39;101566.16;;;6.30;100.00
56270;BME280;42176;43.240;27.880;2023-01-01T03:05:14;101556.56;;;6.85;100.00
56270;BME280;42176;43.240;27.880;2023-01-01T03:07:57;101562.09;;;7.01;100.00
56270;BME280;42176;43.240;27.880;2023-01-01T03:13:21;101555.47;;;7.28;96.97
56270;BME280;42176;43.240;27.880;2023-01-01T03:16:08;101546.06;;;7.45;95.00
56270;BME280;42176;43.240;27.880;2023-01-01T03:21:06;101552.19;;;5.45;100.00
56270;BME280;42176;43.240;27.880;2023-01-01T03:23:37;101549.06;;;5.64;100.00
56270;BME280;42176;43.240;27.880;2023-01-01T03:26:08;101544.06;;;5.77;100.00
56270;BME280;42176;43.240;27.880;2023-01-01T03:28:45;101546.13;;;5.93;100.00
56270;BME280;42176;43.240;27.880;2023-01-01T03:31:16;101544.97;;;6.23;100.00
56270;BME280;42176;43.240;27.880;2023-01-01T03:33:46;101546.28;;;5.57;100.00
56270;BME280;42176;43.240;27.880;2023-01-01T03:36:34;101553.06;;;5.88;100.00
56270;BME280;42176;43.240;27.880;2023-01-01T03:39:13;101530.56;;;6.03;100.00
56270;BME280;42176;43.240;27.880;2023-01-01T03:41:46;101553.28;;;6.47;100.00
56270;BME280;42176;43.240;27.880;2023-01-01T03:44:23;101558.75;;;6.07;100.00
56270;BME280;42176;43.240;27.880;2023-01-01T03:46:51;101557.25;;;6.21;100.00
56270;BME280;42176;43.240;27.880;2023-01-01T03:49:18;101554.84;;;6.35;100.00
56270;BME280;42176;43.240;27.880;2023-01-01T03:52:21;101564.88;;;6.57;100.00
56270;BME280;42176;43.240;27.880;2023-01-01T04:00:12;101567.16;;;6.35;100.00
56270;BME280;42176;43.240;27.880;2023-01-01T04:02:54;101564.84;;;6.53;100.00
56270;BME280;42176;43.240;27.880;2023-01-01T04:05:20;101566.94;;;6.73;99.94
56270;BME280;42176;43.240;27.880;2023-01-01T04:07:48;101567.13;;;6.85;98.79
56270;BME280;42176;43.240;27.880;2023-01-01T04:10:14;101569.13;;;6.99;97.43
56270;BME280;42176;43.240;27.880;2023-01-01T04:12:54;101567.53;;;7.10;96.57
56270;BME280;42176;43.240;27.880;2023-01-01T04:15:23;101573.91;;;7.26;95.34
56270;BME280;42176;43.240;27.880;2023-01-01T04:17:50;101580.28;;;6.84;94.92
56270;BME280;42176;43.240;27.880;2023-01-01T04:20:16;101579.13;;;6.17;100.00
56270;BME280;42176;43.240;27.880;2023-01-01T04:22:42;101584.81;;;6.40;100.00
56270;BME280;42176;43.240;27.880;2023-01-01T04:25:08;101586.16;;;6.66;100.00
56270;BME280;42176;43.240;27.880;2023-01-01T04:27:34;101578.75;;;6.97;96.61
56270;BME280;42176;43.240;27.880;2023-01-01T04:30:00;101590.22;;;6.48;100.00
56270;BME280;42176;43.240;27.880;2023-01-01T04:32:25;101592.22;;;6.63;100.00
56270;BME280;42176;43.240;27.880;2023-01-01T04:34:51;101585.41;;;6.75;100.00
56270;BME280;42176;43.240;27.880;2023-01-01T04:37:16;101583.03;;;6.90;99.05
56270;BME280;42176;43.240;27.880;2023-01-01T04:39:42;101592.94;;;7.05;97.77
56270;BME280;42176;43.240;27.880;2023-01-01T04:42:08;101583.47;;;7.20;96.21
56270;BME280;42176;43.240;27.880;2023-01-01T04:44:33;101580.16;;;7.33;95.13
56270;BME280;42176;43.240;27.880;2023-01-01T04:46:58;101562.47;;;7.26;94.64
56270;BME280;42176;43.240;27.880;2023-01-01T04:49:24;101590.16;;;7.57;93.25
56270;BME280;42176;43.240;27.880;2023-01-01T04:51:49;101584.19;;;7.69;91.72
56270;BME280;42176;43.240;27.880;2023-01-01T04:54:15;101585.19;;;7.79;90.96
56270;BME280;42176;43.240;27.880;2023-01-01T04:56:40;101586.25;;;7.92;89.55
56270;BME280;42176;43.240;27.880;2023-01-01T04:59:06;101586.28;;;7.98;88.74
56270;BME280;42176;43.240;27.880;2023-01-01T05:01:31;101588.25;;;8.15;86.17
56270;BME280;42176;43.240;27.880;2023-01-01T05:03:58;101595.13;;;6.77;93.18
56270;BME280;42176;43.240;27.880;2023-01-01T05:06:24;101590.03;;;6.39;99.69
56270;BME280;42176;43.240;27.880;2023-01-01T05:08:52;101598.22;;;6.54;99.43
56270;BME280;42176;43.240;27.880;2023-01-01T05:11:23;101590.91;;;6.89;96.80
56270;BME280;42176;43.240;27.880;2023-01-01T05:13:51;101591.88;;;5.99;99.09
56270;BME280;42176;43.240;27.880;2023-01-01T05:16:20;101609.53;;;6.03;100.00
56270;BME280;42176;43.240;27.880;2023-01-01T05:18:47;101600.09;;;6.13;100.00
56270;BME280;42176;43.240;27.880;2023-01-01T05:21:24;101604.69;;;6.24;100.00
56270;BME280;42176;43.240;27.880;2023-01-01T05:23:57;101601.47;;;6.39;99.37
56270;BME280;42176;43.240;27.880;2023-01-01T05:26:25;101603.72;;;5.78;100.00
56270;BME280;42176;43.240;27.880;2023-01-01T05:28:53;101604.09;;;5.97;100.00
56270;BME280;42176;43.240;27.880;2023-01-01T05:31:23;101599.84;;;6.46;100.00
56270;BME280;42176;43.240;27.880;2023-01-01T05:33:50;101586.44;;;5.89;100.00
56270;BME280;42176;43.240;27.880;2023-01-01T05:36:37;101600.72;;;6.01;100.00
56270;BME280;42176;43.240;27.880;2023-01-01T05:39:04;101602.88;;;6.20;100.00
56270;BME280;42176;43.240;27.880;2023-01-01T05:41:30;101604.97;;;6.40;100.00
56270;BME280;42176;43.240;27.880;2023-01-01T05:43:55;101600.13;;;6.62;100.00
56270;BME280;42176;43.240;27.880;2023-01-01T05:46:23;101603.22;;;6.88;99.19
56270;BME280;42176;43.240;27.880;2023-01-01T05:48:50;101595.63;;;7.08;96.54
56270;BME280;42176;43.240;27.880;2023-01-01T05:51:22;101597.63;;;7.25;95.12
56270;BME280;42176;43.240;27.880;2023-01-01T05:53:48;101604.06;;;7.42;93.84
56270;BME280;42176;43.240;27.880;2023-01-01T05:56:14;101599.91;;;7.63;92.23
56270;BME280;42176;43.240;27.880;2023-01-01T05:58:41;101598.13;;;8.31;89.54
56270;BME280;42176;43.240;27.880;2023-01-01T06:01:24;101596.34;;;9.27;82.80
56270;BME280;42176;43.240;27.880;2023-01-01T06:03:50;101598.47;;;10.00;78.53
56270;BME280;42176;43.240;27.880;2023-01-01T06:06:18;101595.16;;;10.69;73.29
56270;BME280;42176;43.240;27.880;2023-01-01T06:08:55;101593.38;;;11.21;69.73
56270;BME280;42176;43.240;27.880;2023-01-01T06:11:21;101593.28;;;11.61;67.12
56270;BME280;42176;43.240;27.880;2023-01-01T06:13:51;101601.91;;;12.25;63.81
56270;BME280;42176;43.240;27.880;2023-01-01T06:16:16;101601.38;;;13.00;60.29
56270;BME280;42176;43.240;27.880;2023-01-01T06:18:42;101600.88;;;13.55;57.29
56270;BME280;42176;43.240;27.880;2023-01-01T06:21:13;101603.63;;;13.49;56.45
56270;BME280;42176;43.240;27.880;2023-01-01T06:23:40;101608.63;;;12.82;58.36
56270;BME280;42176;43.240;27.880;2023-01-01T06:28:33;101622.78;;;12.90;58.29
56270;BME280;42176;43.240;27.880;2023-01-01T06:31:00;101604.66;;;13.30;57.86
56270;BME280;42176;43.240;27.880;2023-01-01T06:33:26;101611.09;;;14.58;53.48
56270;BME280;42176;43.240;27.880;2023-01-01T06:35:51;101624.59;;;15.57;50.70
56270;BME280;42176;43.240;27.880;2023-01-01T06:38:17;101617.47;;;16.44;47.93
56270;BME280;42176;43.240;27.880;2023-01-01T06:40:42;101621.72;;;17.28;45.52
56270;BME280;42176;43.240;27.880;2023-01-01T06:43:08;101616.06;;;18.04;43.78
56270;BME280;42176;43.240;27.880;2023-01-01T06:45:33;101613.91;;;18.74;42.21
56270;BME280;42176;43.240;27.880;2023-01-01T06:47:58;101624.34;;;19.38;40.80
56270;BME280;42176;43.240;27.880;2023-01-01T06:50:24;101619.00;;;20.11;39.58
56270;BME280;42176;43.240;27.880;2023-01-01T06:52:49;101615.38;;;20.58;38.83
56270;BME280;42176;43.240;27.880;2023-01-01T06:55:15;101619.09;;;21.00;37.96
56270;BME280;42176;43.240;27.880;2023-01-01T06:57:40;101615.94;;;21.52;36.99
56270;BME280;42176;43.240;27.880;2023-01-01T07:00:06;101620.66;;;22.08;35.14
56270;BME280;42176;43.240;27.880;2023-01-01T07:02:32;101621.34;;;22.51;33.95
56270;BME280;42176;43.240;27.880;2023-01-01T07:04:57;101623.00;;;23.08;32.96
56270;BME280;42176;43.240;27.880;2023-01-01T07:07:23;101630.03;;;23.65;31.70
56270;BME280;42176;43.240;27.880;2023-01-01T07:09:48;101623.91;;;24.12;30.64
56270;BME280;42176;43.240;27.880;2023-01-01T07:12:13;101629.75;;;24.53;30.40
56270;BME280;42176;43.240;27.880;2023-01-01T07:14:39;101631.56;;;25.00;29.77
56270;BME280;42176;43.240;27.880;2023-01-01T07:17:04;101629.34;;;25.37;28.57
56270;BME280;42176;43.240;27.880;2023-01-01T07:19:30;101623.09;;;25.66;28.09
56270;BME280;42176;43.240;27.880;2023-01-01T07:21:55;101619.91;;;26.03;27.89
56270;BME280;42176;43.240;27.880;2023-01-01T07:24:20;101625.41;;;26.44;26.92
56270;BME280;42176;43.240;27.880;2023-01-01T07:26:46;101624.25;;;26.76;27.00
56270;BME280;42176;43.240;27.880;2023-01-01T07:29:13;101621.75;;;27.13;26.52
56270;BME280;42176;43.240;27.880;2023-01-01T07:31:40;101620.97;;;27.52;26.19
56270;BME280;42176;43.240;27.880;2023-01-01T07:34:10;101629.91;;;27.92;25.82
56270;BME280;42176;43.240;27.880;2023-01-01T07:36:36;101629.91;;;27.54;25.06
56270;BME280;42176;43.240;27.880;2023-01-01T07:39:02;101623.91;;;27.74;25.44
56270;BME280;42176;43.240;27.880;2023-01-01T07:41:27;101633.47;;;27.93;24.92
56270;BME280;42176;43.240;27.880;2023-01-01T07:43:53;101628.75;;;27.17;24.70
56270;BME280;42176;43.240;27.880;2023-01-01T07:46:18;101620.06;;;27.38;24.56
56270;BME280;42176;43.240;27.880;2023-01-01T07:48:44;101610.25;;;27.35;24.57
56270;BME280;42176;43.240;27.880;2023-01-01T07:51:10;101639.72;;;27.69;24.00
56270;BME280;42176;43.240;27.880;2023-01-01T07:53:35;101641.22;;;27.73;24.17
56270;BME280;42176;43.240;27.880;2023-01-01T07:56:01;101641.34;;;27.85;23.81
56270;BME280;42176;43.240;27.880;2023-01-01T07:58:26;101626.88;;;27.71;23.68
56270;BME280;42176;43.240;27.880;2023-01-01T08:00:52;101644.09;;;27.85;23.83
56270;BME280;42176;43.240;27.880;2023-01-01T08:03:17;101636.25;;;27.27;24.29
56270;BME280;42176;43.240;27.880;2023-01-01T08:05:43;101642.16;;;27.20;24.28
56270;BME280;42176;43.240;27.880;2023-01-01T08:08:09;101612.53;;;27.16;24.08
56270;BME280;42176;43.240;27.880;2023-01-01T08:10:35;101650.78;;;27.40;23.71
56270;BME280;42176;43.240;27.880;2023-01-01T08:13:01;101656.72;;;27.19;24.54
56270;BME280;42176;43.240;27.880;2023-01-01T08:15:27;101650.00;;;26.98;24.49
56270;BME280;42176;43.240;27.880;2023-01-01T08:18:00;101651.25;;;26.79;24.74
56270;BME280;42176;43.240;27.880;2023-01-01T08:20:28;101653.59;;;26.29;25.03
56270;BME280;42176;43.240;27.880;2023-01-01T08:22:53;101649.25;;;26.12;25.48
56270;BME280;42176;43.240;27.880;2023-01-01T08:25:19;101652.91;;;25.67;25.48
56270;BME280;42176;43.240;27.880;2023-01-01T08:27:46;101652.97;;;24.74;26.92
56270;BME280;42176;43.240;27.880;2023-01-01T08:30:13;101642.34;;;24.54;27.57
56270;BME280;42176;43.240;27.880;2023-01-01T08:32:38;101653.44;;;23.66;28.31
56270;BME280;42176;43.240;27.880;2023-01-01T08:35:04;101654.41;;;23.65;28.85
56270;BME280;42176;43.240;27.880;2023-01-01T08:37:30;101640.59;;;23.17;29.20
56270;BME280;42176;43.240;27.880;2023-01-01T08:39:55;101654.22;;;22.42;30.61
56270;BME280;42176;43.240;27.880;2023-01-01T08:42:21;101659.97;;;21.10;32.13
56270;BME280;42176;43.240;27.880;2023-01-01T08:44:46;101656.69;;;20.11;34.55
56270;BME280;42176;43.240;27.880;2023-01-01T08:49:42;101651.97;;;18.60;37.10
56270;BME280;42176;43.240;27.880;2023-01-01T08:52:07;101645.97;;;17.90;38.07
56270;BME280;42176;43.240;27.880;2023-01-01T08:54:33;101653.53;;;17.41;39.06
56270;BME280;42176;43.240;27.880;2023-01-01T08:56:58;101643.06;;;16.97;40.73
56270;BME280;42176;43.240;27.880;2023-01-01T08:59:24;101649.88;;;16.71;41.01
56270;BME280;42176;43.240;27.880;2023-01-01T09:01:49;101651.75;;;16.26;42.26
56270;BME280;42176;43.240;27.880;2023-01-01T09:04:14;101653.47;;;15.87;43.28
56270;BME280;42176;43.240;27.880;2023-01-01T09:06:41;101650.97;;;15.76;44.02
56270;BME280;42176;43.240;27.880;2023-01-01T09:09:07;101643.56;;;15.42;44.83
56270;BME280;42176;43.240;27.880;2023-01-01T09:11:32;101640.41;;;15.19;45.70
56270;BME280;42176;43.240;27.880;2023-01-01T09:13:57;101638.91;;;15.03;45.95
56270;BME280;42176;43.240;27.880;2023-01-01T09:16:23;101641.84;;;14.86;46.18
56270;BME280;42176;43.240;27.880;2023-01-01T09:18:49;101628.72;;;14.72;47.48
56270;BME280;42176;43.240;27.880;2023-01-01T09:21:14;101627.84;;;14.71;47.30
56270;BME280;42176;43.240;27.880;2023-01-01T09:23:39;101642.13;;;14.64;47.63
56270;BME280;42176;43.240;27.880;2023-01-01T09:26:07;101631.53;;;14.59;48.18
56270;BME280;42176;43.240;27.880;2023-01-01T09:28:33;101627.06;;;14.61;48.20
56270;BME280;42176;43.240;27.880;2023-01-01T09:31:00;101629.66;;;14.69;48.11
56270;BME280;42176;43.240;27.880;2023-01-01T09:33:26;101626.19;;;14.61;48.08
56270;BME280;42176;43.240;27.880;2023-01-01T09:35:52;101628.00;;;14.59;48.45
56270;BME280;42176;43.240;27.880;2023-01-01T09:38:18;101624.41;;;14.63;48.59
56270;BME280;42176;43.240;27.880;2023-01-01T09:41:38;101623.47;;;14.66;48.94
56270;BME280;42176;43.240;27.880;2023-01-01T09:46:45;101617.34;;;14.59;48.79
56270;BME280;42176;43.240;27.880;2023-01-01T09:49:16;101612.94;;;14.55;48.84
56270;BME280;42176;43.240;27.880;2023-01-01T09:51:50;101618.16;;;14.62;49.64
56270;BME280;42176;43.240;27.880;2023-01-01T09:56:55;101610.09;;;14.66;49.26
56270;BME280;42176;43.240;27.880;2023-01-01T09:59:22;101607.44;;;14.66;49.08
56270;BME280;42176;43.240;27.880;2023-01-01T10:02:02;101612.69;;;14.73;49.87
56270;BME280;42176;43.240;27.880;2023-01-01T10:12:18;101603.09;;;14.60;50.30
56270;BME280;42176;43.240;27.880;2023-01-01T10:14:54;101590.66;;;14.59;50.59
56270;BME280;42176;43.240;27.880;2023-01-01T10:17:43;101595.81;;;14.71;49.50
56270;BME280;42176;43.240;27.880;2023-01-01T10:22:54;101590.34;;;14.79;48.84
56270;BME280;42176;43.240;27.880;2023-01-01T10:25:24;101588.56;;;14.80;48.86
56270;BME280;42176;43.240;27.880;2023-01-01T10:30:28;101566.25;;;14.84;48.46
56270;BME280;42176;43.240;27.880;2023-01-01T10:32:55;101586.47;;;14.97;48.45
56270;BME280;42176;43.240;27.880;2023-01-01T10:35:32;101579.19;;;15.09;48.05
56270;BME280;42176;43.240;27.880;2023-01-01T10:37:59;101586.28;;;15.10;48.22
56270;BME280;42176;43.240;27.880;2023-01-01T10:40:27;101571.19;;;15.09;47.97
56270;BME280;42176;43.240;27.880;2023-01-01T10:42:55;101570.19;;;15.13;47.90
56270;BME280;42176;43.240;27.880;2023-01-01T10:45:49;101555.03;;;15.15;47.95
56270;BME280;42176;43.240;27.880;2023-01-01T10:48:26;101557.75;;;15.12;47.45
56270;BME280;42176;43.240;27.880;2023-01-01T10:50:57;101552.44;;;15.10;47.44
56270;BME280;42176;43.240;27.880;2023-01-01T10:53:37;101558.50;;;15.20;47.38
56270;BME280;42176;43.240;27.880;2023-01-01T11:01:07;101540.53;;;15.28;47.48
56270;BME280;42176;43.240;27.880;2023-01-01T11:03:33;101540.56;;;15.27;47.72
56270;BME280;42176;43.240;27.880;2023-01-01T11:08:50;101528.97;;;15.26;47.18
56270;BME280;42176;43.240;27.880;2023-01-01T11:13:51;101539.44;;;15.38;47.16
56270;BME280;42176;43.240;27.880;2023-01-01T11:16:18;101542.09;;;15.40;46.80
56270;BME280;42176;43.240;27.880;2023-01-01T11:18:44;101542.94;;;15.42;47.18
56270;BME280;42176;43.240;27.880;2023-01-01T11:21:09;101544.59;;;15.48;47.14
56270;BME280;42176;43.240;27.880;2023-01-01T11:23:43;101550.00;;;15.46;46.87
56270;BME280;42176;43.240;27.880;2023-01-01T11:28:37;101538.25;;;15.53;46.91
56270;BME280;42176;43.240;27.880;2023-01-01T11:33:31;101540.72;;;15.64;46.27
56270;BME280;42176;43.240;27.880;2023-01-01T11:35:58;101543.34;;;15.66;46.04
56270;BME280;42176;43.240;27.880;2023-01-01T11:38:24;101539.91;;;15.61;46.83
56270;BME280;42176;43.240;27.880;2023-01-01T11:40:52;101537.19;;;15.62;45.70
56270;BME280;42176;43.240;27.880;2023-01-01T11:43:23;101531.03;;;15.59;45.63
56270;BME280;42176;43.240;27.880;2023-01-01T11:45:51;101534.56;;;15.61;45.44
56270;BME280;42176;43.240;27.880;2023-01-01T11:50:52;101527.38;;;15.63;45.94
56270;BME280;42176;43.240;27.880;2023-01-01T11:56:16;101513.78;;;15.74;45.91
56270;BME280;42176;43.240;27.880;2023-01-01T12:01:36;101520.81;;;15.78;45.87
56270;BME280;42176;43.240;27.880;2023-01-01T12:06:42;101519.91;;;15.79;45.52
56270;BME280;42176;43.240;27.880;2023-01-01T12:14:33;101513.59;;;15.83;45.35
56270;BME280;42176;43.240;27.880;2023-01-01T12:20:24;101522.22;;;15.97;45.14
56270;BME280;42176;43.240;27.880;2023-01-01T12:22:53;101520.38;;;16.00;45.12
56270;BME280;42176;43.240;27.880;2023-01-01T12:25:20;101516.81;;;16.01;44.90
56270;BME280;42176;43.240;27.880;2023-01-01T12:44:04;101516.16;;;16.28;44.83
56270;BME280;42176;43.240;27.880;2023-01-01T12:49:27;101511.78;;;16.26;45.33
56270;BME280;42176;43.240;27.880;2023-01-01T12:52:06;101521.56;;;16.25;45.33
56270;BME280;42176;43.240;27.880;2023-01-01T12:57:35;101518.06;;;16.23;45.29
56270;BME280;42176;43.240;27.880;2023-01-01T13:00:13;101516.22;;;16.25;45.33
56270;BME280;42176;43.240;27.880;2023-01-01T13:02:47;101515.34;;;16.25;45.21
56270;BME280;42176;43.240;27.880;2023-01-01T13:05:19;101509.28;;;16.18;45.39
56270;BME280;42176;43.240;27.880;2023-01-01T13:07:48;101526.84;;;16.28;45.50
56270;BME280;42176;43.240;27.880;2023-01-01T13:10:24;101519.75;;;16.27;45.48
56270;BME280;42176;43.240;27.880;2023-01-01T13:12:52;101511.84;;;16.23;45.58
56270;BME280;42176;43.240;27.880;2023-01-01T13:18:07;101519.97;;;16.18;46.05
56270;BME280;42176;43.240;27.880;2023-01-01T13:43:03;101511.63;;;15.91;46.90
56270;BME280;42176;43.240;27.880;2023-01-01T13:45:36;101496.81;;;15.76;47.04
56270;BME280;42176;43.240;27.880;2023-01-01T13:49:03;101515.38;;;15.82;47.33
56270;BME280;42176;43.240;27.880;2023-01-01T14:07:20;101515.75;;;15.65;48.37
56270;BME280;42176;43.240;27.880;2023-01-01T14:09:48;101516.81;;;15.57;48.70
56270;BME280;42176;43.240;27.880;2023-01-01T14:12:20;101512.38;;;15.56;48.89
56270;BME280;42176;43.240;27.880;2023-01-01T14:14:46;101510.81;;;15.45;48.93
56270;BME280;42176;43.240;27.880;2023-01-01T14:17:15;101516.06;;;15.50;48.93
56270;BME280;42176;43.240;27.880;2023-01-01T14:19:42;101512.53;;;15.48;48.95
56270;BME280;42176;43.240;27.880;2023-01-01T14:22:09;101513.44;;;15.47;49.12
56270;BME280;42176;43.240;27.880;2023-01-01T14:24:42;101506.50;;;15.38;49.02
56270;BME280;42176;43.240;27.880;2023-01-01T14:27:15;101503.97;;;15.32;49.63
56270;BME280;42176;43.240;27.880;2023-01-01T14:29:45;101512.13;;;15.22;50.09
56270;BME280;42176;43.240;27.880;2023-01-01T14:32:22;101506.22;;;15.06;50.29
56270;BME280;42176;43.240;27.880;2023-01-01T14:34:58;101507.66;;;14.77;51.87
56270;BME280;42176;43.240;27.880;2023-01-01T14:37:24;101510.47;;;14.68;51.65
56270;BME280;42176;43.240;27.880;2023-01-01T14:40:19;101517.47;;;14.75;51.91
56270;BME280;42176;43.240;27.880;2023-01-01T14:43:01;101512.09;;;14.77;51.98
56270;BME280;42176;43.240;27.880;2023-01-01T14:45:29;101510.38;;;14.74;52.54
56270;BME280;42176;43.240;27.880;2023-01-01T14:47:56;101508.66;;;14.67;52.65
56270;BME280;42176;43.240;27.880;2023-01-01T14:50:25;101518.59;;;14.59;52.63
56270;BME280;42176;43.240;27.880;2023-01-01T14:53:12;101518.28;;;13.57;55.61
56270;BME280;42176;43.240;27.880;2023-01-01T14:55:44;101527.34;;;12.44;61.76
56270;BME280;42176;43.240;27.880;2023-01-01T14:58:23;101506.94;;;12.47;61.01
56270;BME280;42176;43.240;27.880;2023-01-01T15:00:50;101528.06;;;12.63;60.79
56270;BME280;42176;43.240;27.880;2023-01-01T15:03:21;101520.06;;;12.68;60.41
56270;BME280;42176;43.240;27.880;2023-01-01T15:05:59;101512.91;;;12.71;59.50
56270;BME280;42176;43.240;27.880;2023-01-01T15:08:25;101529.41;;;11.98;62.05
56270;BME280;42176;43.240;27.880;2023-01-01T15:10:51;101527.88;;;11.26;67.26
56270;BME280;42176;43.240;27.880;2023-01-01T15:13:20;101485.41;;;11.26;66.22
56270;BME280;42176;43.240;27.880;2023-01-01T15:15:49;101534.84;;;11.61;65.54